createdAt,value
2018-06-17T09:13:37.393Z,74.30
2018-06-17T10:54:45.384Z,47.10
2018-06-17T10:57:16.837Z,43.40
2018-06-17T10:59:48.681Z,43.30
2018-06-17T11:02:20.699Z,44.50
2018-06-17T11:04:52.133Z,41.70
2018-06-17T11:07:34.129Z,44.00
2018-06-17T11:10:08.836Z,45.80
2018-06-17T11:12:40.128Z,43.30
2018-06-17T11:15:13.656Z,46.50
2018-06-17T11:17:47.639Z,45.70
2018-06-17T11:20:22.464Z,45.00
2018-06-17T11:22:54.395Z,45.90
2018-06-17T11:25:32.176Z,41.50
2018-06-17T11:28:06.143Z,42.60
2018-06-17T11:30:37.650Z,43.70
2018-06-17T11:33:08.876Z,43.40
2018-06-17T11:35:40.250Z,42.00
2018-06-17T11:38:12.500Z,43.10
2018-06-17T11:40:44.067Z,43.00
2018-06-17T11:43:16.391Z,42.10
2018-06-17T11:45:47.789Z,43.20
2018-06-17T11:48:19.152Z,43.90
2018-06-17T11:50:50.592Z,43.50
2018-06-17T11:53:21.870Z,41.60
2018-06-17T11:55:53.299Z,39.60
2018-06-17T11:59:02.583Z,41.30
2018-06-17T12:01:34.041Z,42.10
2018-06-17T12:04:05.789Z,44.10
2018-06-17T12:06:37.160Z,41.30
2018-06-17T12:09:10.709Z,40.50
2018-06-17T12:11:42.499Z,43.50
2018-06-17T12:14:18.299Z,41.20
2018-06-17T12:16:50.437Z,40.80
2018-06-17T12:19:22.457Z,42.70
2018-06-17T12:21:57.569Z,42.70
2018-06-17T12:27:04.911Z,42.70
2018-06-17T12:29:37.418Z,41.10
2018-06-17T12:32:09.911Z,39.50
2018-06-17T12:34:41.922Z,39.90
2018-06-17T12:37:16.110Z,41.20
2018-06-17T12:39:48.650Z,42.80
2018-06-17T12:48:22.150Z,38.20
2018-06-17T12:50:55.161Z,38.60
2018-06-17T12:53:28.742Z,40.70
2018-06-17T13:16:01.760Z,40.20
2018-06-17T13:18:34.405Z,42.50
2018-06-17T13:21:07.080Z,40.60
2018-06-17T13:23:38.675Z,41.20
2018-06-17T13:26:10.435Z,38.50
2018-06-17T13:28:41.825Z,39.70
2018-06-17T13:31:13.426Z,40.90
2018-06-17T13:36:15.570Z,41.40
2018-06-17T13:38:47.125Z,43.10
2018-06-17T13:41:18.559Z,41.10
2018-06-17T13:43:50.702Z,41.30
2018-06-17T13:48:57.225Z,43.90
2018-06-17T13:51:29.660Z,41.10
2018-06-17T13:54:01.631Z,42.80
2018-06-17T13:56:35.576Z,42.90
2018-06-17T13:59:06.931Z,41.90
2018-06-17T14:01:38.531Z,41.20
2018-06-17T14:06:40.688Z,43.50
2018-06-17T14:09:12.073Z,42.60
2018-06-17T14:11:43.481Z,41.20
2018-06-17T14:14:14.785Z,41.70
2018-06-17T14:16:46.209Z,43.10
2018-06-17T14:19:17.508Z,40.40
2018-06-17T14:21:49.200Z,40.50
2018-06-17T14:24:20.552Z,39.40
2018-06-17T14:26:52.198Z,40.70
2018-06-17T14:29:23.596Z,40.20
2018-06-17T14:31:55.981Z,41.60
2018-06-17T14:34:27.835Z,41.00
2018-06-17T14:36:59.571Z,41.90
2018-06-17T14:39:30.892Z,40.70
2018-06-17T14:42:07.265Z,42.00
2018-06-17T14:44:43.433Z,42.00
2018-06-17T14:47:19.688Z,42.30
2018-06-17T14:49:56.025Z,42.10
2018-06-17T14:52:36.814Z,41.90
2018-06-17T14:55:08.337Z,41.60
2018-06-17T14:57:40.317Z,42.60
2018-06-17T15:00:11.681Z,43.20
2018-06-17T15:02:43.097Z,43.30
2018-06-17T15:05:17.601Z,43.80
2018-06-17T15:07:49.133Z,45.00
2018-06-17T15:12:53.731Z,41.90
2018-06-17T15:15:25.530Z,41.20
2018-06-17T15:17:57.002Z,42.10
2018-06-17T15:20:28.783Z,43.20
2018-06-17T15:23:00.113Z,42.00
2018-06-17T15:25:31.629Z,41.80
2018-06-17T15:28:02.953Z,41.90
2018-06-17T15:30:34.340Z,42.00
2018-06-17T15:40:58.073Z,43.10
2018-06-17T15:43:30.027Z,43.20
2018-06-17T15:48:32.113Z,42.20
2018-06-17T15:51:03.500Z,41.70
2018-06-17T15:53:35.239Z,43.10
2018-06-17T15:56:06.721Z,42.50
2018-06-17T15:58:38.279Z,41.40
2018-06-17T16:01:09.799Z,41.60
2018-06-17T16:03:41.191Z,41.80
2018-06-17T16:06:12.476Z,41.70
2018-06-17T16:08:44.274Z,41.70
2018-06-17T16:11:16.097Z,42.40
2018-06-17T16:13:52.692Z,42.20
2018-06-17T16:16:29.461Z,42.10
2018-06-17T16:19:05.880Z,42.20
2018-06-17T16:21:37.274Z,42.00
2018-06-17T16:24:09.062Z,42.70
2018-06-17T16:26:40.471Z,42.90
2018-06-17T16:31:44.932Z,42.90
2018-06-17T16:34:19.346Z,43.40
2018-06-17T16:36:51.073Z,43.20
2018-06-17T16:48:07.161Z,45.70
2018-06-17T16:50:39.207Z,45.40
2018-06-17T16:53:15.436Z,45.20
2018-06-17T16:55:51.688Z,45.60
2018-06-17T16:58:28.093Z,45.60
2018-06-17T17:00:59.575Z,44.70
2018-06-17T17:03:30.898Z,44.30
2018-06-17T17:06:02.322Z,44.20
2018-06-17T17:08:33.727Z,45.10
2018-06-17T17:11:05.276Z,46.10
2018-06-17T17:13:36.685Z,45.80
2018-06-17T17:16:08.126Z,45.60
2018-06-17T17:18:39.539Z,45.90
2018-06-17T17:21:10.950Z,44.60
2018-06-17T17:23:42.751Z,43.90
2018-06-17T17:26:14.149Z,44.10
2018-06-17T17:28:45.551Z,44.80
2018-06-17T17:31:24.979Z,45.50
2018-06-17T17:34:02.507Z,45.70
2018-06-17T17:36:38.872Z,45.90
2018-06-17T17:39:15.551Z,47.00
2018-06-17T17:41:49.173Z,47.10
2018-06-17T17:46:56.226Z,48.20
